createdAt,value
2023-01-19T00:02:09.054Z,16.12
2023-01-19T00:05:12.333Z,15.84
2023-01-19T00:08:15.734Z,15.85
2023-01-19T00:11:20.489Z,16.03
2023-01-19T00:14:25.507Z,15.93
2023-01-19T00:17:28.752Z,15.88
2023-01-19T00:20:33.305Z,15.77
2023-01-19T00:23:36.548Z,15.52
2023-01-19T00:26:39.960Z,15.62
2023-01-19T00:29:43.168Z,15.35
2023-01-19T00:32:47.600Z,15.52
2023-01-19T00:35:54.805Z,15.40
2023-01-19T00:38:58.168Z,15.27
2023-01-19T00:42:01.515Z,15.43
2023-01-19T00:45:04.965Z,15.46
2023-01-19T00:48:08.353Z,15.05
2023-01-19T00:51:12.839Z,15.03
2023-01-19T00:54:16.229Z,15.27
2023-01-19T00:57:19.533Z,15.09
2023-01-19T01:00:23.109Z,15.39
2023-01-19T01:03:28.756Z,15.22
2023-01-19T01:06:31.998Z,15.28
2023-01-19T01:09:35.292Z,15.49
2023-01-19T01:12:39.299Z,15.47
2023-01-19T01:15:45.077Z,15.32
2023-01-19T01:18:48.228Z,15.28
2023-01-19T01:21:51.433Z,15.11
2023-01-19T01:24:54.707Z,15.17
2023-01-19T01:27:58.137Z,15.44
2023-01-19T01:31:01.354Z,15.57
2023-01-19T01:34:04.576Z,15.51
2023-01-19T01:37:08.277Z,15.35
2023-01-19T01:40:17.463Z,15.29
2023-01-19T01:43:23.074Z,15.32
2023-01-19T01:46:29.422Z,15.26
2023-01-19T01:49:34.081Z,15.20
2023-01-19T01:52:43.440Z,15.58
2023-01-19T01:56:10.477Z,15.99
2023-01-19T01:59:36.689Z,15.38
2023-01-19T02:02:39.946Z,15.12
2023-01-19T02:05:43.319Z,15.20
2023-01-19T02:08:48.246Z,15.46
2023-01-19T02:11:51.770Z,15.48
2023-01-19T02:14:54.958Z,15.78
2023-01-19T02:17:58.196Z,15.43
2023-01-19T02:21:04.841Z,15.64
2023-01-19T02:24:11.213Z,15.68
2023-01-19T02:27:14.475Z,15.80
2023-01-19T02:30:18.404Z,15.64
2023-01-19T02:33:21.565Z,15.55
2023-01-19T02:36:34.863Z,15.56
2023-01-19T02:39:52.159Z,15.75
2023-01-19T02:43:00.196Z,15.52
2023-01-19T02:46:04.323Z,15.56
2023-01-19T02:49:07.734Z,15.71
2023-01-19T02:52:18.833Z,15.70
2023-01-19T02:55:25.329Z,15.53
2023-01-19T02:58:34.912Z,15.35
2023-01-19T03:01:47.219Z,15.36
2023-01-19T03:05:05.030Z,15.51
2023-01-19T03:08:44.142Z,15.46
2023-01-19T03:11:55.013Z,15.47
2023-01-19T03:15:02.088Z,15.15
2023-01-19T03:18:07.579Z,15.33
2023-01-19T03:21:11.936Z,15.31
2023-01-19T03:24:19.262Z,15.32
2023-01-19T03:27:27.217Z,15.28
2023-01-19T03:30:33.434Z,15.27
2023-01-19T03:33:39.237Z,15.26
2023-01-19T03:36:50.932Z,15.20
2023-01-19T03:39:54.165Z,15.09
2023-01-19T03:42:57.883Z,15.30
2023-01-19T03:46:02.304Z,15.23
2023-01-19T03:49:07.350Z,15.11
2023-01-19T03:52:10.979Z,15.03
2023-01-19T03:55:14.357Z,15.05
2023-01-19T03:58:17.852Z,14.97
2023-01-19T04:01:23.732Z,14.90
2023-01-19T04:04:28.004Z,15.38
2023-01-19T04:07:31.267Z,15.31
2023-01-19T04:10:34.541Z,14.99
2023-01-19T04:13:37.732Z,14.97
2023-01-19T04:16:43.897Z,14.73
2023-01-19T04:19:47.037Z,14.76
2023-01-19T04:22:50.333Z,14.90
2023-01-19T04:26:01.838Z,14.98
2023-01-19T04:29:08.132Z,14.78
2023-01-19T04:32:11.430Z,14.83
2023-01-19T04:35:14.874Z,14.47
2023-01-19T04:38:19.305Z,14.22
2023-01-19T04:41:22.716Z,14.42
2023-01-19T04:44:25.967Z,14.40
2023-01-19T04:47:31.447Z,14.55
2023-01-19T04:50:34.694Z,14.40
2023-01-19T04:53:37.904Z,14.41
2023-01-19T04:56:41.054Z,14.54
2023-01-19T04:59:44.639Z,14.52
2023-01-19T05:02:48.388Z,14.52
2023-01-19T05:05:51.632Z,14.51
2023-01-19T05:08:54.851Z,14.35
2023-01-19T05:11:58.126Z,13.93
2023-01-19T05:15:03.646Z,14.07
2023-01-19T05:18:06.864Z,13.94
2023-01-19T05:21:10.004Z,13.96
2023-01-19T05:24:14.933Z,14.15
2023-01-19T05:27:18.232Z,13.74
2023-01-19T05:30:21.581Z,13.63
2023-01-19T05:33:25.290Z,13.67
2023-01-19T05:36:28.487Z,13.76
2023-01-19T05:39:31.746Z,13.71
2023-01-19T05:42:34.946Z,13.76
2023-01-19T05:45:38.287Z,13.61
2023-01-19T05:48:41.495Z,13.66
2023-01-19T05:51:45.226Z,13.38
2023-01-19T05:54:48.906Z,13.48
2023-01-19T05:57:52.076Z,13.58
2023-01-19T06:00:57.247Z,13.58
2023-01-19T06:04:00.395Z,13.42
2023-01-19T06:07:06.054Z,13.44
2023-01-19T06:10:10.331Z,13.48
2023-01-19T06:13:13.565Z,13.67
2023-01-19T06:16:16.727Z,13.71
2023-01-19T06:19:20.013Z,13.92
2023-01-19T06:22:24.385Z,14.03
2023-01-19T06:25:27.857Z,13.82
2023-01-19T06:28:31.299Z,13.63
2023-01-19T06:31:34.563Z,13.71
2023-01-19T06:34:37.800Z,13.75
2023-01-19T06:37:41.670Z,13.43
2023-01-19T06:40:45.529Z,13.24
2023-01-19T06:43:50.957Z,13.29
2023-01-19T06:47:14.883Z,13.36
2023-01-19T06:50:20.247Z,13.45
2023-01-19T06:53:23.507Z,13.41
2023-01-19T06:56:26.985Z,13.40
2023-01-19T06:59:30.327Z,13.28
2023-01-19T07:02:33.788Z,13.16
2023-01-19T07:05:37.641Z,13.23
2023-01-19T07:08:40.938Z,12.96
2023-01-19T07:11:46.387Z,13.01
2023-01-19T07:14:49.683Z,13.10
2023-01-19T07:17:53.012Z,13.05
2023-01-19T07:21:00.931Z,13.17
2023-01-19T07:24:04.346Z,13.11
2023-01-19T07:27:07.483Z,13.11
2023-01-19T07:30:11.159Z,13.00
2023-01-19T07:33:14.396Z,13.20
2023-01-19T07:36:20.463Z,13.25
2023-01-19T07:39:24.701Z,13.32
2023-01-19T07:42:28.112Z,13.08
2023-01-19T07:45:31.428Z,12.98
2023-01-19T07:48:34.870Z,12.97
2023-01-19T07:51:38.107Z,12.66
2023-01-19T07:54:41.319Z,12.85
2023-01-19T07:57:44.582Z,12.85
2023-01-19T08:00:47.723Z,12.79
2023-01-19T08:03:50.901Z,12.70
2023-01-19T08:06:54.159Z,12.57
2023-01-19T08:09:57.437Z,12.64
2023-01-19T08:13:00.955Z,12.72
2023-01-19T08:16:04.454Z,12.69
2023-01-19T08:19:07.701Z,12.77
2023-01-19T08:22:10.964Z,12.68
2023-01-19T08:25:14.184Z,12.20
2023-01-19T08:28:18.355Z,12.24
2023-01-19T08:31:25.034Z,12.15
2023-01-19T08:34:28.444Z,12.14
2023-01-19T08:37:34.032Z,12.27
2023-01-19T08:40:41.274Z,12.18
2023-01-19T08:43:44.785Z,11.79
2023-01-19T08:46:49.285Z,11.73
2023-01-19T08:49:52.466Z,11.90
2023-01-19T08:53:03.610Z,11.72
2023-01-19T08:56:07.453Z,11.65
2023-01-19T08:59:12.477Z,11.63
2023-01-19T09:02:16.280Z,11.55
2023-01-19T09:05:19.663Z,11.65
2023-01-19T09:08:22.833Z,11.40
2023-01-19T09:11:26.121Z,11.46
2023-01-19T09:14:29.337Z,11.55
2023-01-19T09:17:32.552Z,11.15
2023-01-19T09:20:35.745Z,11.42
2023-01-19T09:23:39.019Z,11.47
2023-01-19T09:26:42.141Z,11.40
2023-01-19T09:29:45.581Z,11.22
2023-01-19T09:32:48.885Z,11.02
2023-01-19T09:35:52.254Z,10.96
2023-01-19T09:38:55.436Z,10.92
2023-01-19T09:42:07.375Z,10.96
2023-01-19T09:45:20.787Z,11.16
2023-01-19T09:48:24.122Z,11.14
2023-01-19T09:51:39.145Z,11.21
2023-01-19T09:54:57.936Z,11.27
2023-01-19T09:58:01.469Z,10.93
2023-01-19T10:01:35.677Z,10.94
2023-01-19T10:05:05.280Z,10.94
2023-01-19T10:08:19.431Z,11.07
2023-01-19T10:11:53.341Z,11.21
2023-01-19T10:15:23.219Z,11.23
2023-01-19T10:18:37.275Z,11.04
2023-01-19T10:21:43.610Z,10.89
2023-01-19T10:24:47.075Z,10.91
2023-01-19T10:27:52.664Z,10.84
2023-01-19T10:30:56.512Z,10.94
2023-01-19T10:34:01.499Z,11.18
2023-01-19T10:37:31.158Z,10.71
2023-01-19T10:41:08.147Z,10.63
2023-01-19T10:44:11.880Z,10.61
2023-01-19T10:47:20.816Z,10.24
2023-01-19T10:50:32.957Z,10.24
2023-01-19T10:53:38.594Z,10.22
2023-01-19T10:56:42.022Z,10.64
2023-01-19T10:59:45.282Z,10.72
2023-01-19T11:02:51.931Z,10.43
2023-01-19T11:05:55.361Z,10.30
2023-01-19T11:09:20.114Z,9.99
2023-01-19T11:12:24.852Z,9.77
2023-01-19T11:15:32.520Z,9.88
2023-01-19T11:18:40.270Z,10.14
2023-01-19T11:21:43.459Z,10.40
2023-01-19T11:24:48.356Z,10.53
2023-01-19T11:27:52.350Z,10.44
2023-01-19T11:30:58.021Z,10.22
2023-01-19T11:34:03.901Z,9.85
2023-01-19T11:37:27.923Z,9.96
2023-01-19T11:40:31.670Z,9.96
2023-01-19T11:43:48.285Z,9.89
2023-01-19T11:46:58.544Z,9.69
2023-01-19T11:50:22.843Z,9.80
2023-01-19T11:53:33.573Z,9.93
2023-01-19T11:56:36.965Z,9.90
2023-01-19T11:59:40.406Z,9.70
2023-01-19T12:02:47.942Z,9.58
2023-01-19T12:05:59.107Z,9.53
2023-01-19T12:09:13.774Z,9.36
2023-01-19T12:12:34.223Z,9.52
2023-01-19T12:15:38.199Z,9.63
2023-01-19T12:18:47.821Z,9.73
2023-01-19T12:21:51.439Z,9.77
2023-01-19T12:24:58.959Z,9.81
2023-01-19T12:28:01.821Z,9.76
2023-01-19T12:31:05.703Z,9.36
2023-01-19T12:34:29.507Z,9.35
2023-01-19T12:37:39.188Z,9.17
2023-01-19T12:40:42.397Z,9.42
2023-01-19T12:43:45.709Z,9.48
2023-01-19T12:46:54.237Z,9.43
2023-01-19T12:50:01.719Z,9.49
2023-01-19T12:53:05.916Z,9.77
2023-01-19T12:56:09.553Z,9.66
2023-01-19T12:59:26.596Z,9.64
2023-01-19T13:02:49.341Z,9.84
2023-01-19T13:05:53.750Z,9.53
2023-01-19T13:09:01.834Z,9.63
2023-01-19T13:12:26.340Z,9.57
2023-01-19T13:15:38.059Z,9.69
2023-01-19T13:18:42.563Z,9.98
2023-01-19T13:21:48.069Z,9.76
2023-01-19T13:25:11.405Z,9.79
2023-01-19T13:28:16.539Z,9.42
2023-01-19T13:31:20.340Z,9.31
2023-01-19T13:34:25.742Z,9.44
2023-01-19T13:37:39.718Z,9.29
2023-01-19T13:40:43.010Z,9.28
2023-01-19T13:43:46.359Z,9.24
2023-01-19T13:46:50.085Z,9.14
2023-01-19T13:49:58.040Z,9.29
2023-01-19T13:53:01.675Z,9.20
2023-01-19T13:56:11.033Z,9.48
2023-01-19T13:59:16.657Z,9.55
2023-01-19T14:02:20.277Z,9.59
2023-01-19T14:05:26.300Z,9.54
2023-01-19T14:08:29.555Z,9.60
2023-01-19T14:11:32.881Z,9.92
2023-01-19T14:14:36.331Z,10.23
2023-01-19T14:17:40.069Z,10.47
2023-01-19T14:20:54.337Z,10.51
2023-01-19T14:24:23.851Z,10.73
2023-01-19T14:27:27.264Z,10.97
2023-01-19T14:30:30.485Z,11.33
2023-01-19T14:33:41.538Z,11.45
2023-01-19T14:36:44.761Z,11.73
2023-01-19T14:39:53.568Z,11.97
2023-01-19T14:43:01.183Z,12.09
2023-01-19T14:46:04.605Z,12.31
2023-01-19T14:49:13.076Z,12.41
2023-01-19T14:52:36.744Z,12.71
2023-01-19T14:55:55.332Z,12.73
2023-01-19T14:59:00.303Z,13.12
2023-01-19T15:02:03.740Z,13.31
2023-01-19T15:05:07.694Z,13.17
2023-01-19T15:08:24.571Z,13.13
2023-01-19T15:11:33.564Z,13.43
2023-01-19T15:14:36.854Z,13.46
2023-01-19T15:17:40.037Z,13.69
2023-01-19T15:20:43.373Z,13.66
2023-01-19T15:23:46.789Z,13.75
2023-01-19T15:26:49.953Z,13.84
2023-01-19T15:29:53.202Z,13.78
2023-01-19T15:32:56.466Z,13.80
2023-01-19T15:35:59.702Z,14.24
2023-01-19T15:39:03.070Z,14.33
2023-01-19T15:42:11.381Z,14.59
2023-01-19T15:45:49.998Z,14.61
2023-01-19T15:48:53.964Z,14.70
2023-01-19T15:51:59.447Z,14.83
2023-01-19T15:55:02.844Z,15.06
2023-01-19T15:58:06.057Z,14.94
2023-01-19T16:01:19.386Z,15.06
2023-01-19T16:04:26.796Z,15.39
2023-01-19T16:07:29.988Z,15.45
2023-01-19T16:10:33.263Z,15.43
2023-01-19T16:13:39.490Z,15.15
2023-01-19T16:16:42.743Z,15.22
2023-01-19T16:19:46.017Z,15.40
2023-01-19T16:22:50.069Z,15.78
2023-01-19T16:26:01.631Z,15.83
2023-01-19T16:29:07.546Z,15.52
2023-01-19T16:32:10.805Z,15.62
2023-01-19T16:35:13.983Z,15.86
2023-01-19T16:38:17.172Z,15.72
2023-01-19T16:41:20.866Z,16.04
2023-01-19T16:44:24.335Z,16.36
2023-01-19T16:47:27.577Z,16.65
2023-01-19T16:50:30.745Z,16.71
2023-01-19T16:53:34.857Z,16.82
2023-01-19T16:56:38.160Z,16.76
2023-01-19T16:59:41.374Z,16.85
2023-01-19T17:02:44.624Z,17.03
2023-01-19T17:05:52.084Z,17.45
2023-01-19T17:08:55.384Z,17.03
2023-01-19T17:11:58.632Z,16.75
2023-01-19T17:15:01.869Z,16.97
2023-01-19T17:18:06.165Z,17.12
2023-01-19T17:21:10.981Z,17.07
2023-01-19T17:24:14.383Z,17.51
2023-01-19T17:27:17.699Z,17.44
2023-01-19T17:30:21.049Z,17.47
2023-01-19T17:33:25.312Z,17.39
2023-01-19T17:36:30.592Z,17.77
2023-01-19T17:39:34.025Z,17.65
2023-01-19T17:42:41.681Z,17.47
2023-01-19T17:45:44.959Z,17.78
2023-01-19T17:48:59.689Z,17.73
2023-01-19T17:52:02.899Z,18.03
2023-01-19T17:55:06.442Z,18.35
2023-01-19T17:58:09.622Z,18.30
2023-01-19T18:01:19.180Z,17.89
2023-01-19T18:04:22.531Z,17.99
2023-01-19T18:07:25.747Z,18.32
2023-01-19T18:10:28.937Z,18.52
2023-01-19T18:13:34.536Z,18.38
2023-01-19T18:16:37.802Z,18.58
2023-01-19T18:19:40.994Z,18.31
2023-01-19T18:22:44.276Z,18.41
2023-01-19T18:25:48.633Z,18.58
2023-01-19T18:28:56.155Z,18.66
2023-01-19T18:31:59.503Z,18.92
2023-01-19T18:35:02.849Z,18.85
2023-01-19T18:38:06.100Z,19.31
2023-01-19T18:41:19.847Z,19.15
2023-01-19T18:44:23.059Z,19.71
2023-01-19T18:47:26.601Z,19.63
2023-01-19T18:50:30.134Z,19.44
2023-01-19T18:53:33.557Z,19.13
2023-01-19T18:56:37.080Z,19.94
2023-01-19T18:59:40.335Z,19.63
2023-01-19T19:02:45.923Z,19.61
2023-01-19T19:05:49.222Z,19.24
2023-01-19T19:08:53.822Z,19.51
2023-01-19T19:11:57.271Z,19.93
2023-01-19T19:15:00.648Z,19.39
2023-01-19T19:18:03.958Z,19.36
2023-01-19T19:21:11.970Z,19.73
2023-01-19T19:24:15.168Z,19.92
2023-01-19T19:27:18.388Z,19.71
2023-01-19T19:30:21.816Z,19.81
2023-01-19T19:33:25.091Z,19.92
2023-01-19T19:36:29.335Z,19.63
2023-01-19T19:39:32.502Z,20.03
2023-01-19T19:42:36.021Z,19.93
2023-01-19T19:45:39.327Z,19.95
2023-01-19T19:48:44.117Z,19.96
2023-01-19T19:51:47.297Z,20.20
2023-01-19T19:54:50.459Z,20.24
2023-01-19T19:57:54.063Z,20.16
2023-01-19T20:00:57.995Z,19.68
2023-01-19T20:04:06.941Z,19.83
2023-01-19T20:07:10.254Z,20.14
2023-01-19T20:10:13.623Z,20.52
2023-01-19T20:13:17.039Z,20.57
2023-01-19T20:16:23.709Z,20.54
2023-01-19T20:19:27.003Z,19.92
2023-01-19T20:22:30.340Z,19.89
2023-01-19T20:25:33.571Z,19.76
2023-01-19T20:28:37.772Z,19.95
2023-01-19T20:31:50.123Z,19.74
2023-01-19T20:34:54.149Z,19.87
2023-01-19T20:38:00.173Z,20.68
2023-01-19T20:41:03.863Z,20.63
2023-01-19T20:44:07.927Z,20.26
2023-01-19T20:47:13.892Z,20.50
2023-01-19T20:50:21.163Z,21.15
2023-01-19T20:53:25.193Z,20.62
2023-01-19T20:56:29.035Z,21.12
2023-01-19T20:59:32.765Z,20.98
2023-01-19T21:02:36.980Z,21.40
2023-01-19T21:05:40.662Z,21.93
2023-01-19T21:08:47.686Z,22.11
2023-01-19T21:11:52.874Z,21.53
2023-01-19T21:14:59.598Z,21.71
2023-01-19T21:18:03.830Z,21.22
2023-01-19T21:21:10.646Z,21.40
2023-01-19T21:24:19.297Z,21.72
2023-01-19T21:27:24.723Z,21.24
2023-01-19T21:30:28.834Z,21.36
2023-01-19T21:33:33.246Z,21.31
2023-01-19T21:36:37.444Z,21.49
2023-01-19T21:39:41.651Z,21.01
2023-01-19T21:42:46.249Z,20.59
2023-01-19T21:45:52.978Z,19.67
2023-01-19T21:49:02.279Z,19.77
2023-01-19T21:52:06.346Z,19.65
2023-01-19T21:55:10.106Z,19.94
2023-01-19T21:58:13.459Z,19.75
2023-01-19T22:01:16.744Z,19.51
2023-01-19T22:04:20.963Z,19.12
2023-01-19T22:07:25.077Z,19.59
2023-01-19T22:10:28.940Z,19.77
2023-01-19T22:13:34.099Z,19.82
2023-01-19T22:16:37.374Z,19.72
2023-01-19T22:19:42.948Z,20.17
2023-01-19T22:22:47.101Z,19.62
2023-01-19T22:25:50.305Z,20.07
2023-01-19T22:29:03.300Z,21.21
2023-01-19T22:32:09.079Z,20.69
2023-01-19T22:35:14.663Z,19.68
2023-01-19T22:38:18.102Z,19.35
2023-01-19T22:41:36.216Z,19.31
2023-01-19T22:44:39.732Z,19.68
2023-01-19T22:47:43.680Z,19.37
2023-01-19T22:50:47.712Z,19.09
2023-01-19T22:53:53.430Z,18.66
2023-01-19T22:56:56.742Z,18.24
2023-01-19T23:00:00.136Z,18.44
2023-01-19T23:03:05.896Z,18.62
2023-01-19T23:06:13.589Z,18.39
2023-01-19T23:09:17.422Z,18.45
2023-01-19T23:12:20.957Z,18.19
2023-01-19T23:15:24.141Z,17.91
2023-01-19T23:18:27.776Z,17.73
2023-01-19T23:21:32.388Z,17.69
2023-01-19T23:24:37.781Z,17.31
2023-01-19T23:27:41.022Z,17.07
2023-01-19T23:30:44.443Z,16.90
2023-01-19T23:33:47.694Z,16.74
2023-01-19T23:36:50.967Z,16.66
2023-01-19T23:39:54.110Z,16.67
2023-01-19T23:42:57.348Z,16.40
2023-01-19T23:46:05.075Z,16.28
2023-01-19T23:49:08.499Z,15.95
2023-01-19T23:52:11.802Z,15.87
2023-01-19T23:55:15.324Z,15.85
2023-01-19T23:58:18.702Z,15.87
